Details From YBCS - Cairns Intl
To PKWA - Bucholz Aaf
Flight Number -
Tags Generated
Created
Modified
Stats Distance 2,016 nm / 3,735 km
Max Altitude 0 ft / 0 m
Waypoints 3
Social Downloads 1
Likes 0
Share VATSIM

Download

Looking for another format? Having issues loading an existing format? Contact us
Advertisement - Login to hide

Notes

Generated

Route

YBCS R1279 PKWA

ID Type Via Altitude Latitude Longitude Leg Dist Tot Dist Heading (true) Name
O YBCS APT - 0 ft / 0 m -16.88101˚ 145.75261˚ - 0 nm - Cairns Intl
R1279 FIX - 0 ft / 0 m 8.71740˚ 167.72284˚ 2016 nm 2016 nm 42° / 40° -
O PKWA APT - 0 ft / 0 m 8.71740˚ 167.72284˚ 0 nm 2016 nm 0° / 180° -

Altitude Profile

Advertisement - Login to hide

Weather


0- 5 10 15 20 25 30 35+ Temperature / ° C

Clouds and Precipitation
Forecast for 2017-12-17 06:00 UTC. Updated an hour ago

Ground ~20,000 ft ~40,000 ft Winds

YBCS

Details ICAO YBCS (CNS)
Name Cairns Intl
Region Australia
Timezone Australia/Brisbane (UTC+10.0)
Stats Elevation 10 ft / 3 m (AMSL)
Location -16.881079° 145.752598°
Runways 2
Magnetic Variation 6.715° E

METAR

YBCS 170200Z 13012KT 9999 SCT035 SCT048 31/21 Q1010 NOSIG

Decode

TAF

TAF YBCS 162325Z 1700/1724 14010KT 9999 SCT025 FM170200 10012KT 9999 FEW030 FM170800 16008KT 9999 SCT025

Decode

Departure Runways

ID Width Length Bearing (true) Bearing (mag) Surface Threshold Offset Overrun Length
12 62 ft / 19 m 3,045 ft / 928 m 125.77° 119.06° Asphalt 0 ft / 0 m 0 ft / 0 m
15 148 ft / 45 m 10,522 ft / 3,207 m 156.60° 149.89° Asphalt 0 ft / 0 m 328 ft / 100 m
30 62 ft / 19 m 3,045 ft / 928 m 305.77° 299.06° Asphalt 0 ft / 0 m 0 ft / 0 m
33 148 ft / 45 m 10,522 ft / 3,207 m 336.60° 329.89° Asphalt 0 ft / 0 m 0 ft / 0 m

PKWA

Details ICAO PKWA (KWA)
Name BUCHOLZ AAF
Region Marshall Islands
Timezone Pacific/Kwajalein (UTC+12.0)
Stats Elevation 9 ft / 3 m (AMSL)
Location 8.720121° 167.731662°
Runways 1
Magnetic Variation 7.617° E

METAR

PKWA 170200Z AUTO 07018KT 10SM CLR 31/24 A2976 RMK AO2 T03050235

Decode

TAF

TAF PKWA 162341Z 1700/1724 08016G22KT P6SM VCSH SCT024 SCT060

Decode

Destination Runways

ID Width Length Bearing (true) Bearing (mag) Surface Threshold Offset Overrun Length
06 198 ft / 60 m 6,666 ft / 2,032 m 72.67° 65.05° Asphalt 0 ft / 0 m 0 ft / 0 m
24 198 ft / 60 m 6,666 ft / 2,032 m 252.67° 245.05° Asphalt 0 ft / 0 m 0 ft / 0 m